Terminal Aerodrome Forecast
Issued by NWS Grand Forks, ND

Home | Current Version | Previous Version | Graphics & Text | Print | Product List | Glossary On
Versions: 1 2 3 4 5 6 7 8 9 10 11 12 13
000
FTUS43 KFGF 232200 AAA
TAFGFK
TAF AMD
KGFK 232244Z 2323/2418 34011KT P6SM OVC010
     FM240200 34010KT P6SM OVC008
     FM240600 32008KT P6SM OVC005=

USA.gov is the U.S. government's official web portal to all federal, state and local government web resources and services.